sensor_id;sensor_type;location;lat;lon;timestamp;temperature;humidity
40085;DHT22;25786;51.504;7.344;2023-08-30T00:00:42;17.10;81.50
40085;DHT22;25786;51.504;7.344;2023-08-30T00:03:08;17.00;81.70
40085;DHT22;25786;51.504;7.344;2023-08-30T00:05:38;17.00;81.60
40085;DHT22;25786;51.504;7.344;2023-08-30T00:08:04;17.00;81.50
40085;DHT22;25786;51.504;7.344;2023-08-30T00:10:47;16.90;81.70
40085;DHT22;25786;51.504;7.344;2023-08-30T00:13:16;16.90;81.70
40085;DHT22;25786;51.504;7.344;2023-08-30T00:16:03;16.80;81.80
40085;DHT22;25786;51.504;7.344;2023-08-30T00:18:33;16.70;82.30
40085;DHT22;25786;51.504;7.344;2023-08-30T00:20:59;16.70;82.40
40085;DHT22;25786;51.504;7.344;2023-08-30T00:23:27;16.60;82.70
40085;DHT22;25786;51.504;7.344;2023-08-30T00:26:01;16.60;82.50
40085;DHT22;25786;51.504;7.344;2023-08-30T00:28:46;16.60;82.20
40085;DHT22;25786;51.504;7.344;2023-08-30T00:31:20;16.60;82.90
40085;DHT22;25786;51.504;7.344;2023-08-30T00:33:45;16.60;82.40
40085;DHT22;25786;51.504;7.344;2023-08-30T00:36:13;16.60;82.10
40085;DHT22;25786;51.504;7.344;2023-08-30T00:38:55;16.60;82.10
40085;DHT22;25786;51.504;7.344;2023-08-30T00:41:52;16.50;82.10
40085;DHT22;25786;51.504;7.344;2023-08-30T00:44:29;16.50;82.40
40085;DHT22;25786;51.504;7.344;2023-08-30T00:47:09;16.50;82.50
40085;DHT22;25786;51.504;7.344;2023-08-30T00:50:11;16.50;83.00
40085;DHT22;25786;51.504;7.344;2023-08-30T00:52:48;16.50;82.40
40085;DHT22;25786;51.504;7.344;2023-08-30T00:55:18;16.50;82.10
40085;DHT22;25786;51.504;7.344;2023-08-30T00:57:46;16.50;81.90
40085;DHT22;25786;51.504;7.344;2023-08-30T01:00:12;16.40;82.10
40085;DHT22;25786;51.504;7.344;2023-08-30T01:02:43;16.30;82.70
40085;DHT22;25786;51.504;7.344;2023-08-30T01:05:19;16.30;82.30
40085;DHT22;25786;51.504;7.344;2023-08-30T01:07:44;16.30;82.50
40085;DHT22;25786;51.504;7.344;2023-08-30T01:10:12;16.20;82.90
40085;DHT22;25786;51.504;7.344;2023-08-30T01:12:51;16.10;82.90
40085;DHT22;25786;51.504;7.344;2023-08-30T01:15:21;16.20;82.80
40085;DHT22;25786;51.504;7.344;2023-08-30T01:17:53;16.20;82.10
40085;DHT22;25786;51.504;7.344;2023-08-30T01:20:22;16.10;82.50
40085;DHT22;25786;51.504;7.344;2023-08-30T01:28:01;16.00;82.20
40085;DHT22;25786;51.504;7.344;2023-08-30T01:30:28;16.00;82.30
40085;DHT22;25786;51.504;7.344;2023-08-30T01:32:54;16.00;82.20
40085;DHT22;25786;51.504;7.344;2023-08-30T01:35:29;15.90;82.20
40085;DHT22;25786;51.504;7.344;2023-08-30T01:37:58;15.80;82.30
40085;DHT22;25786;51.504;7.344;2023-08-30T01:40:32;15.70;82.90
40085;DHT22;25786;51.504;7.344;2023-08-30T01:42:59;15.80;83.20
40085;DHT22;25786;51.504;7.344;2023-08-30T01:45:27;15.80;83.10
40085;DHT22;25786;51.504;7.344;2023-08-30T01:47:59;15.70;82.70
40085;DHT22;25786;51.504;7.344;2023-08-30T01:50:25;15.70;82.80
40085;DHT22;25786;51.504;7.344;2023-08-30T01:52:51;15.60;82.80
40085;DHT22;25786;51.504;7.344;2023-08-30T01:55:20;15.70;82.80
40085;DHT22;25786;51.504;7.344;2023-08-30T01:57:46;15.60;82.90
40085;DHT22;25786;51.504;7.344;2023-08-30T02:00:12;15.60;83.00
40085;DHT22;25786;51.504;7.344;2023-08-30T02:02:38;15.60;83.10
40085;DHT22;25786;51.504;7.344;2023-08-30T02:05:03;15.60;82.90
40085;DHT22;25786;51.504;7.344;2023-08-30T02:09:57;15.60;82.40
40085;DHT22;25786;51.504;7.344;2023-08-30T02:12:23;15.50;83.30
40085;DHT22;25786;51.504;7.344;2023-08-30T02:14:50;15.60;82.90
40085;DHT22;25786;51.504;7.344;2023-08-30T02:17:17;15.60;83.10
40085;DHT22;25786;51.504;7.344;2023-08-30T02:19:45;15.60;82.90
40085;DHT22;25786;51.504;7.344;2023-08-30T02:22:11;15.70;82.80
40085;DHT22;25786;51.504;7.344;2023-08-30T02:24:37;15.70;82.80
40085;DHT22;25786;51.504;7.344;2023-08-30T02:27:02;15.70;82.60
40085;DHT22;25786;51.504;7.344;2023-08-30T02:29:28;15.70;83.10
40085;DHT22;25786;51.504;7.344;2023-08-30T02:31:53;15.70;82.80
40085;DHT22;25786;51.504;7.344;2023-08-30T02:34:19;15.70;82.70
40085;DHT22;25786;51.504;7.344;2023-08-30T02:36:44;15.70;82.10
40085;DHT22;25786;51.504;7.344;2023-08-30T02:39:11;15.70;82.10
40085;DHT22;25786;51.504;7.344;2023-08-30T02:41:36;15.60;82.60
40085;DHT22;25786;51.504;7.344;2023-08-30T02:44:02;15.60;83.10
40085;DHT22;25786;51.504;7.344;2023-08-30T02:46:28;15.60;83.40
40085;DHT22;25786;51.504;7.344;2023-08-30T02:48:57;15.50;83.40
40085;DHT22;25786;51.504;7.344;2023-08-30T02:51:22;15.50;83.40
40085;DHT22;25786;51.504;7.344;2023-08-30T02:53:48;15.50;83.30
40085;DHT22;25786;51.504;7.344;2023-08-30T02:56:13;15.40;83.00
40085;DHT22;25786;51.504;7.344;2023-08-30T02:58:39;15.40;83.20
40085;DHT22;25786;51.504;7.344;2023-08-30T03:01:04;15.30;83.30
40085;DHT22;25786;51.504;7.344;2023-08-30T03:03:30;15.30;83.30
40085;DHT22;25786;51.504;7.344;2023-08-30T03:05:55;15.30;83.40
40085;DHT22;25786;51.504;7.344;2023-08-30T03:08:21;15.30;83.40
40085;DHT22;25786;51.504;7.344;2023-08-30T03:10:46;15.30;83.70
40085;DHT22;25786;51.504;7.344;2023-08-30T03:13:12;15.30;83.00
40085;DHT22;25786;51.504;7.344;2023-08-30T03:15:37;15.30;83.20
40085;DHT22;25786;51.504;7.344;2023-08-30T03:18:03;15.20;83.50
40085;DHT22;25786;51.504;7.344;2023-08-30T03:20:28;15.30;83.10
40085;DHT22;25786;51.504;7.344;2023-08-30T03:22:57;15.30;83.10
40085;DHT22;25786;51.504;7.344;2023-08-30T03:25:27;15.20;83.30
40085;DHT22;25786;51.504;7.344;2023-08-30T03:27:54;15.20;83.60
40085;DHT22;25786;51.504;7.344;2023-08-30T03:30:19;15.20;83.60
40085;DHT22;25786;51.504;7.344;2023-08-30T03:32:44;15.20;83.70
40085;DHT22;25786;51.504;7.344;2023-08-30T03:35:10;15.20;83.40
40085;DHT22;25786;51.504;7.344;2023-08-30T03:37:36;15.30;83.30
40085;DHT22;25786;51.504;7.344;2023-08-30T03:40:01;15.20;83.10
40085;DHT22;25786;51.504;7.344;2023-08-30T03:42:27;15.20;83.20
40085;DHT22;25786;51.504;7.344;2023-08-30T03:44:52;15.20;83.30
40085;DHT22;25786;51.504;7.344;2023-08-30T03:47:18;15.00;84.10
40085;DHT22;25786;51.504;7.344;2023-08-30T03:49:43;15.00;84.00
40085;DHT22;25786;51.504;7.344;2023-08-30T03:52:09;15.00;83.50
40085;DHT22;25786;51.504;7.344;2023-08-30T03:54:34;15.00;83.10
40085;DHT22;25786;51.504;7.344;2023-08-30T03:57:00;15.00;83.50
40085;DHT22;25786;51.504;7.344;2023-08-30T03:59:25;15.00;83.50
40085;DHT22;25786;51.504;7.344;2023-08-30T04:01:52;14.90;83.90
40085;DHT22;25786;51.504;7.344;2023-08-30T04:04:18;14.80;84.00
40085;DHT22;25786;51.504;7.344;2023-08-30T04:06:43;14.90;83.90
40085;DHT22;25786;51.504;7.344;2023-08-30T04:09:09;14.90;84.00
40085;DHT22;25786;51.504;7.344;2023-08-30T04:11:35;14.80;84.10
40085;DHT22;25786;51.504;7.344;2023-08-30T04:14:00;14.90;83.90
40085;DHT22;25786;51.504;7.344;2023-08-30T04:16:26;14.80;83.80
40085;DHT22;25786;51.504;7.344;2023-08-30T04:18:51;14.90;83.90
40085;DHT22;25786;51.504;7.344;2023-08-30T04:21:17;15.00;83.80
40085;DHT22;25786;51.504;7.344;2023-08-30T04:23:42;14.90;83.40
40085;DHT22;25786;51.504;7.344;2023-08-30T04:26:08;14.80;84.10
40085;DHT22;25786;51.504;7.344;2023-08-30T04:28:33;14.70;84.20
40085;DHT22;25786;51.504;7.344;2023-08-30T04:30:59;14.80;83.90
40085;DHT22;25786;51.504;7.344;2023-08-30T04:33:24;14.80;83.90
40085;DHT22;25786;51.504;7.344;2023-08-30T04:35:53;14.80;83.80
40085;DHT22;25786;51.504;7.344;2023-08-30T04:38:19;14.80;83.90
40085;DHT22;25786;51.504;7.344;2023-08-30T04:40:45;14.80;83.90
40085;DHT22;25786;51.504;7.344;2023-08-30T04:43:10;14.60;84.50
40085;DHT22;25786;51.504;7.344;2023-08-30T04:45:36;14.60;84.30
40085;DHT22;25786;51.504;7.344;2023-08-30T04:48:01;14.70;83.90
40085;DHT22;25786;51.504;7.344;2023-08-30T04:50:27;14.70;83.90
40085;DHT22;25786;51.504;7.344;2023-08-30T04:52:52;14.70;83.70
40085;DHT22;25786;51.504;7.344;2023-08-30T04:55:18;14.70;83.40
40085;DHT22;25786;51.504;7.344;2023-08-30T04:57:43;14.50;84.20
40085;DHT22;25786;51.504;7.344;2023-08-30T05:00:13;14.60;83.90
40085;DHT22;25786;51.504;7.344;2023-08-30T05:02:38;14.60;83.80
40085;DHT22;25786;51.504;7.344;2023-08-30T05:05:04;14.50;84.00
40085;DHT22;25786;51.504;7.344;2023-08-30T05:07:30;14.50;84.30
40085;DHT22;25786;51.504;7.344;2023-08-30T05:09:55;14.50;84.30
40085;DHT22;25786;51.504;7.344;2023-08-30T05:12:21;14.50;84.30
40085;DHT22;25786;51.504;7.344;2023-08-30T05:14:46;14.50;84.70
40085;DHT22;25786;51.504;7.344;2023-08-30T05:17:11;14.50;84.90
40085;DHT22;25786;51.504;7.344;2023-08-30T05:19:37;14.50;85.20
40085;DHT22;25786;51.504;7.344;2023-08-30T05:22:02;14.50;85.00
40085;DHT22;25786;51.504;7.344;2023-08-30T05:24:28;14.40;85.40
40085;DHT22;25786;51.504;7.344;2023-08-30T05:26:54;14.40;85.90
40085;DHT22;25786;51.504;7.344;2023-08-30T05:29:19;14.40;85.80
40085;DHT22;25786;51.504;7.344;2023-08-30T05:31:45;14.40;85.90
40085;DHT22;25786;51.504;7.344;2023-08-30T05:34:10;14.50;85.80
40085;DHT22;25786;51.504;7.344;2023-08-30T05:36:36;14.50;86.00
40085;DHT22;25786;51.504;7.344;2023-08-30T05:39:02;14.50;86.30
40085;DHT22;25786;51.504;7.344;2023-08-30T05:41:29;14.50;86.40
40085;DHT22;25786;51.504;7.344;2023-08-30T05:43:55;14.50;86.50
40085;DHT22;25786;51.504;7.344;2023-08-30T05:46:21;14.50;86.70
40085;DHT22;25786;51.504;7.344;2023-08-30T05:48:46;14.60;86.70
40085;DHT22;25786;51.504;7.344;2023-08-30T05:51:13;14.60;86.60
40085;DHT22;25786;51.504;7.344;2023-08-30T05:53:39;14.60;86.50
40085;DHT22;25786;51.504;7.344;2023-08-30T05:56:04;14.70;86.10
40085;DHT22;25786;51.504;7.344;2023-08-30T05:58:30;14.70;86.30
40085;DHT22;25786;51.504;7.344;2023-08-30T06:00:56;14.80;86.50
40085;DHT22;25786;51.504;7.344;2023-08-30T06:03:21;14.80;86.30
40085;DHT22;25786;51.504;7.344;2023-08-30T06:05:47;14.90;86.10
40085;DHT22;25786;51.504;7.344;2023-08-30T06:08:14;14.90;86.10
40085;DHT22;25786;51.504;7.344;2023-08-30T06:10:39;14.90;86.00
40085;DHT22;25786;51.504;7.344;2023-08-30T06:13:05;15.00;86.10
40085;DHT22;25786;51.504;7.344;2023-08-30T06:15:30;15.00;85.90
40085;DHT22;25786;51.504;7.344;2023-08-30T06:17:56;15.10;85.70
40085;DHT22;25786;51.504;7.344;2023-08-30T06:20:21;15.10;85.50
40085;DHT22;25786;51.504;7.344;2023-08-30T06:22:47;15.10;85.50
40085;DHT22;25786;51.504;7.344;2023-08-30T06:25:12;15.10;85.90
40085;DHT22;25786;51.504;7.344;2023-08-30T06:27:42;15.10;85.60
40085;DHT22;25786;51.504;7.344;2023-08-30T06:30:09;15.10;85.40
40085;DHT22;25786;51.504;7.344;2023-08-30T06:32:34;15.10;85.00
40085;DHT22;25786;51.504;7.344;2023-08-30T06:35:00;15.20;85.00
40085;DHT22;25786;51.504;7.344;2023-08-30T06:37:26;15.20;84.80
40085;DHT22;25786;51.504;7.344;2023-08-30T06:39:51;15.10;84.80
40085;DHT22;25786;51.504;7.344;2023-08-30T06:42:16;15.20;84.70
40085;DHT22;25786;51.504;7.344;2023-08-30T06:44:42;15.20;84.70
40085;DHT22;25786;51.504;7.344;2023-08-30T06:47:08;15.30;84.60
40085;DHT22;25786;51.504;7.344;2023-08-30T06:49:33;15.40;84.50
40085;DHT22;25786;51.504;7.344;2023-08-30T06:51:59;15.60;84.20
40085;DHT22;25786;51.504;7.344;2023-08-30T06:54:28;15.50;84.20
40085;DHT22;25786;51.504;7.344;2023-08-30T06:56:59;15.50;84.20
40085;DHT22;25786;51.504;7.344;2023-08-30T06:59:24;15.50;84.10
40085;DHT22;25786;51.504;7.344;2023-08-30T07:01:50;15.60;83.80
40085;DHT22;25786;51.504;7.344;2023-08-30T07:04:15;15.70;83.60
40085;DHT22;25786;51.504;7.344;2023-08-30T07:06:41;15.90;82.90
40085;DHT22;25786;51.504;7.344;2023-08-30T07:09:06;15.90;82.90
40085;DHT22;25786;51.504;7.344;2023-08-30T07:11:32;16.00;82.90
40085;DHT22;25786;51.504;7.344;2023-08-30T07:13:57;16.00;82.50
40085;DHT22;25786;51.504;7.344;2023-08-30T07:16:23;16.00;83.10
40085;DHT22;25786;51.504;7.344;2023-08-30T07:18:48;16.10;82.60
40085;DHT22;25786;51.504;7.344;2023-08-30T07:21:15;16.30;82.00
40085;DHT22;25786;51.504;7.344;2023-08-30T07:23:40;16.50;81.60
40085;DHT22;25786;51.504;7.344;2023-08-30T07:26:06;16.40;81.00
40085;DHT22;25786;51.504;7.344;2023-08-30T07:28:31;16.50;80.90
40085;DHT22;25786;51.504;7.344;2023-08-30T07:31:03;16.60;80.60
40085;DHT22;25786;51.504;7.344;2023-08-30T07:33:28;16.60;80.40
40085;DHT22;25786;51.504;7.344;2023-08-30T07:35:54;16.60;80.30
40085;DHT22;25786;51.504;7.344;2023-08-30T07:38:19;16.50;80.40
40085;DHT22;25786;51.504;7.344;2023-08-30T07:40:45;16.60;80.10
40085;DHT22;25786;51.504;7.344;2023-08-30T07:43:10;16.60;79.80
40085;DHT22;25786;51.504;7.344;2023-08-30T07:45:36;16.60;79.60
40085;DHT22;25786;51.504;7.344;2023-08-30T07:48:01;16.60;79.20
40085;DHT22;25786;51.504;7.344;2023-08-30T07:50:27;16.70;79.20
40085;DHT22;25786;51.504;7.344;2023-08-30T07:52:52;16.80;80.00
40085;DHT22;25786;51.504;7.344;2023-08-30T07:55:18;17.00;79.10
40085;DHT22;25786;51.504;7.344;2023-08-30T07:57:43;17.00;78.90
40085;DHT22;25786;51.504;7.344;2023-08-30T08:00:09;17.10;78.30
40085;DHT22;25786;51.504;7.344;2023-08-30T08:02:34;17.20;77.40
40085;DHT22;25786;51.504;7.344;2023-08-30T08:05:00;17.30;77.30
40085;DHT22;25786;51.504;7.344;2023-08-30T08:07:25;17.40;77.40
40085;DHT22;25786;51.504;7.344;2023-08-30T08:09:51;17.30;76.20
40085;DHT22;25786;51.504;7.344;2023-08-30T08:12:16;17.60;75.70
40085;DHT22;25786;51.504;7.344;2023-08-30T08:14:42;17.60;75.40
40085;DHT22;25786;51.504;7.344;2023-08-30T08:17:08;17.60;74.90
40085;DHT22;25786;51.504;7.344;2023-08-30T08:19:33;17.60;73.90
40085;DHT22;25786;51.504;7.344;2023-08-30T08:22:04;17.80;72.30
40085;DHT22;25786;51.504;7.344;2023-08-30T08:24:29;17.80;72.90
40085;DHT22;25786;51.504;7.344;2023-08-30T08:26:55;18.00;72.70
40085;DHT22;25786;51.504;7.344;2023-08-30T08:29:20;18.00;71.50
40085;DHT22;25786;51.504;7.344;2023-08-30T08:31:45;18.10;71.10
40085;DHT22;25786;51.504;7.344;2023-08-30T08:34:11;18.10;69.40
40085;DHT22;25786;51.504;7.344;2023-08-30T08:36:37;18.10;69.40
40085;DHT22;25786;51.504;7.344;2023-08-30T08:39:03;18.20;68.60
40085;DHT22;25786;51.504;7.344;2023-08-30T08:41:33;18.30;68.10
40085;DHT22;25786;51.504;7.344;2023-08-30T08:43:59;18.30;68.00
40085;DHT22;25786;51.504;7.344;2023-08-30T08:46:25;18.40;68.80
40085;DHT22;25786;51.504;7.344;2023-08-30T08:48:51;18.40;67.20
40085;DHT22;25786;51.504;7.344;2023-08-30T08:51:17;18.40;68.50
40085;DHT22;25786;51.504;7.344;2023-08-30T08:53:43;18.60;67.80
40085;DHT22;25786;51.504;7.344;2023-08-30T08:56:09;18.80;67.90
40085;DHT22;25786;51.504;7.344;2023-08-30T08:58:36;18.90;66.20
40085;DHT22;25786;51.504;7.344;2023-08-30T09:01:03;19.00;67.00
40085;DHT22;25786;51.504;7.344;2023-08-30T09:03:29;19.10;65.90
40085;DHT22;25786;51.504;7.344;2023-08-30T09:05:54;19.20;64.40
40085;DHT22;25786;51.504;7.344;2023-08-30T09:08:20;19.20;63.60
40085;DHT22;25786;51.504;7.344;2023-08-30T09:10:46;19.40;63.10
40085;DHT22;25786;51.504;7.344;2023-08-30T09:13:15;19.50;63.70
40085;DHT22;25786;51.504;7.344;2023-08-30T09:15:41;19.50;62.10
40085;DHT22;25786;51.504;7.344;2023-08-30T09:18:16;19.60;61.80
40085;DHT22;25786;51.504;7.344;2023-08-30T09:20:42;19.60;61.80
40085;DHT22;25786;51.504;7.344;2023-08-30T09:23:20;19.70;61.90
40085;DHT22;25786;51.504;7.344;2023-08-30T09:25:46;19.90;61.80
40085;DHT22;25786;51.504;7.344;2023-08-30T09:28:11;20.00;61.40
40085;DHT22;25786;51.504;7.344;2023-08-30T09:30:36;20.00;60.60
40085;DHT22;25786;51.504;7.344;2023-08-30T09:33:02;20.00;60.80
40085;DHT22;25786;51.504;7.344;2023-08-30T09:35:28;19.90;61.20
40085;DHT22;25786;51.504;7.344;2023-08-30T09:37:53;20.00;61.70
40085;DHT22;25786;51.504;7.344;2023-08-30T09:40:19;19.90;61.50
40085;DHT22;25786;51.504;7.344;2023-08-30T09:42:45;20.00;62.10
40085;DHT22;25786;51.504;7.344;2023-08-30T09:45:17;20.00;61.60
40085;DHT22;25786;51.504;7.344;2023-08-30T09:47:45;20.00;61.20
40085;DHT22;25786;51.504;7.344;2023-08-30T09:50:11;20.00;61.20
40085;DHT22;25786;51.504;7.344;2023-08-30T09:52:37;20.10;61.30
40085;DHT22;25786;51.504;7.344;2023-08-30T09:55:03;20.00;61.70
40085;DHT22;25786;51.504;7.344;2023-08-30T09:57:29;20.00;62.20
40085;DHT22;25786;51.504;7.344;2023-08-30T09:59:55;20.10;61.20
40085;DHT22;25786;51.504;7.344;2023-08-30T10:02:22;20.20;61.50
40085;DHT22;25786;51.504;7.344;2023-08-30T10:04:47;20.30;60.80
40085;DHT22;25786;51.504;7.344;2023-08-30T10:07:13;20.40;61.40
40085;DHT22;25786;51.504;7.344;2023-08-30T10:09:39;20.20;60.90
40085;DHT22;25786;51.504;7.344;2023-08-30T10:12:05;20.20;61.60
40085;DHT22;25786;51.504;7.344;2023-08-30T10:14:31;20.00;61.80
40085;DHT22;25786;51.504;7.344;2023-08-30T10:17:06;19.80;62.80
40085;DHT22;25786;51.504;7.344;2023-08-30T10:19:34;19.80;62.80
40085;DHT22;25786;51.504;7.344;2023-08-30T10:22:05;19.80;62.60
40085;DHT22;25786;51.504;7.344;2023-08-30T10:25:17;19.60;63.60
40085;DHT22;25786;51.504;7.344;2023-08-30T10:27:23;19.60;67.00
40085;DHT22;25786;51.504;7.344;2023-08-30T10:29:49;19.30;68.30
40085;DHT22;25786;51.504;7.344;2023-08-30T10:32:19;19.00;69.90
40085;DHT22;25786;51.504;7.344;2023-08-30T10:34:46;18.70;71.50
40085;DHT22;25786;51.504;7.344;2023-08-30T10:37:12;18.40;75.20
40085;DHT22;25786;51.504;7.344;2023-08-30T10:39:39;18.10;76.80
40085;DHT22;25786;51.504;7.344;2023-08-30T10:44:33;18.00;79.10
40085;DHT22;25786;51.504;7.344;2023-08-30T10:46:58;18.00;79.20
40085;DHT22;25786;51.504;7.344;2023-08-30T10:49:26;18.00;79.20
40085;DHT22;25786;51.504;7.344;2023-08-30T10:51:56;18.10;79.90
40085;DHT22;25786;51.504;7.344;2023-08-30T10:54:36;18.10;79.30
40085;DHT22;25786;51.504;7.344;2023-08-30T10:57:02;18.00;79.70
40085;DHT22;25786;51.504;7.344;2023-08-30T10:59:27;17.90;79.90
40085;DHT22;25786;51.504;7.344;2023-08-30T11:01:54;17.90;80.40
40085;DHT22;25786;51.504;7.344;2023-08-30T11:04:21;17.80;81.10
40085;DHT22;25786;51.504;7.344;2023-08-30T11:06:50;17.80;80.10
40085;DHT22;25786;51.504;7.344;2023-08-30T11:09:17;17.70;81.20
40085;DHT22;25786;51.504;7.344;2023-08-30T11:11:45;17.60;82.50
40085;DHT22;25786;51.504;7.344;2023-08-30T11:14:11;17.60;82.40
40085;DHT22;25786;51.504;7.344;2023-08-30T11:16:37;17.60;82.40
40085;DHT22;25786;51.504;7.344;2023-08-30T11:19:03;17.50;83.10
40085;DHT22;25786;51.504;7.344;2023-08-30T11:21:30;17.50;83.70
40085;DHT22;25786;51.504;7.344;2023-08-30T11:23:56;17.40;83.50
40085;DHT22;25786;51.504;7.344;2023-08-30T11:26:21;17.50;84.30
40085;DHT22;25786;51.504;7.344;2023-08-30T11:28:47;17.40;84.50
40085;DHT22;25786;51.504;7.344;2023-08-30T11:31:21;17.30;84.10
40085;DHT22;25786;51.504;7.344;2023-08-30T11:33:57;17.20;85.30
40085;DHT22;25786;51.504;7.344;2023-08-30T11:36:26;17.10;84.90
40085;DHT22;25786;51.504;7.344;2023-08-30T11:38:52;17.00;85.70
40085;DHT22;25786;51.504;7.344;2023-08-30T11:41:21;16.90;86.50
40085;DHT22;25786;51.504;7.344;2023-08-30T11:43:47;16.90;86.80
40085;DHT22;25786;51.504;7.344;2023-08-30T11:46:13;16.80;86.90
40085;DHT22;25786;51.504;7.344;2023-08-30T11:48:41;16.80;86.80
40085;DHT22;25786;51.504;7.344;2023-08-30T11:51:07;16.80;87.40
40085;DHT22;25786;51.504;7.344;2023-08-30T11:53:34;16.90;87.20
40085;DHT22;25786;51.504;7.344;2023-08-30T11:55:59;16.90;86.40
40085;DHT22;25786;51.504;7.344;2023-08-30T11:58:25;17.00;86.80
40085;DHT22;25786;51.504;7.344;2023-08-30T12:00:50;16.90;86.40
40085;DHT22;25786;51.504;7.344;2023-08-30T12:03:16;16.80;86.50
40085;DHT22;25786;51.504;7.344;2023-08-30T12:05:48;16.80;87.20
40085;DHT22;25786;51.504;7.344;2023-08-30T12:08:17;16.60;87.00
40085;DHT22;25786;51.504;7.344;2023-08-30T12:10:43;16.60;87.50
40085;DHT22;25786;51.504;7.344;2023-08-30T12:13:08;16.50;88.00
40085;DHT22;25786;51.504;7.344;2023-08-30T12:15:44;16.30;88.20
40085;DHT22;25786;51.504;7.344;2023-08-30T12:18:10;16.30;88.70
40085;DHT22;25786;51.504;7.344;2023-08-30T12:20:35;16.30;88.80
40085;DHT22;25786;51.504;7.344;2023-08-30T12:23:01;16.40;88.60
40085;DHT22;25786;51.504;7.344;2023-08-30T12:25:27;16.40;88.90
40085;DHT22;25786;51.504;7.344;2023-08-30T12:27:53;16.40;88.60
40085;DHT22;25786;51.504;7.344;2023-08-30T12:30:18;16.40;88.50
40085;DHT22;25786;51.504;7.344;2023-08-30T12:32:44;16.40;88.60
40085;DHT22;25786;51.504;7.344;2023-08-30T12:35:09;16.40;88.90
40085;DHT22;25786;51.504;7.344;2023-08-30T12:37:35;16.40;88.50
40085;DHT22;25786;51.504;7.344;2023-08-30T12:40:00;16.50;88.30
40085;DHT22;25786;51.504;7.344;2023-08-30T12:42:26;16.50;88.60
40085;DHT22;25786;51.504;7.344;2023-08-30T12:44:51;16.50;88.40
40085;DHT22;25786;51.504;7.344;2023-08-30T12:47:17;16.50;88.30
40085;DHT22;25786;51.504;7.344;2023-08-30T12:49:42;16.50;88.70
40085;DHT22;25786;51.504;7.344;2023-08-30T12:52:08;16.40;89.00
40085;DHT22;25786;51.504;7.344;2023-08-30T12:54:33;16.50;88.90
40085;DHT22;25786;51.504;7.344;2023-08-30T12:56:59;16.50;89.10
40085;DHT22;25786;51.504;7.344;2023-08-30T12:59:24;16.50;88.70
40085;DHT22;25786;51.504;7.344;2023-08-30T13:01:50;16.60;88.50
40085;DHT22;25786;51.504;7.344;2023-08-30T13:04:15;16.70;88.50
40085;DHT22;25786;51.504;7.344;2023-08-30T13:06:41;16.80;88.10
40085;DHT22;25786;51.504;7.344;2023-08-30T13:09:06;16.80;88.30
40085;DHT22;25786;51.504;7.344;2023-08-30T13:11:31;17.00;88.00
40085;DHT22;25786;51.504;7.344;2023-08-30T13:13:58;17.10;87.70
40085;DHT22;25786;51.504;7.344;2023-08-30T13:16:23;17.10;87.40
40085;DHT22;25786;51.504;7.344;2023-08-30T13:18:49;17.00;87.30
40085;DHT22;25786;51.504;7.344;2023-08-30T13:21:15;17.10;87.00
40085;DHT22;25786;51.504;7.344;2023-08-30T13:23:40;17.10;87.60
40085;DHT22;25786;51.504;7.344;2023-08-30T13:26:06;17.10;87.50
40085;DHT22;25786;51.504;7.344;2023-08-30T13:28:31;17.00;87.00
40085;DHT22;25786;51.504;7.344;2023-08-30T13:30:57;16.90;87.10
40085;DHT22;25786;51.504;7.344;2023-08-30T13:33:22;16.90;87.90
40085;DHT22;25786;51.504;7.344;2023-08-30T13:35:51;17.00;87.50
40085;DHT22;25786;51.504;7.344;2023-08-30T13:38:17;16.90;87.70
40085;DHT22;25786;51.504;7.344;2023-08-30T13:40:42;16.90;88.00
40085;DHT22;25786;51.504;7.344;2023-08-30T13:43:08;16.90;88.10
40085;DHT22;25786;51.504;7.344;2023-08-30T13:45:33;16.80;87.90
40085;DHT22;25786;51.504;7.344;2023-08-30T13:47:59;16.60;88.00
40085;DHT22;25786;51.504;7.344;2023-08-30T13:50:24;16.50;88.20
40085;DHT22;25786;51.504;7.344;2023-08-30T13:52:55;16.50;88.40
40085;DHT22;25786;51.504;7.344;2023-08-30T13:55:21;16.50;88.80
40085;DHT22;25786;51.504;7.344;2023-08-30T13:57:46;16.40;88.20
40085;DHT22;25786;51.504;7.344;2023-08-30T14:00:12;16.40;88.70
40085;DHT22;25786;51.504;7.344;2023-08-30T14:02:38;16.40;88.60
40085;DHT22;25786;51.504;7.344;2023-08-30T14:05:03;16.30;88.80
40085;DHT22;25786;51.504;7.344;2023-08-30T14:07:29;16.30;88.80
40085;DHT22;25786;51.504;7.344;2023-08-30T14:09:54;16.40;89.30
40085;DHT22;25786;51.504;7.344;2023-08-30T14:12:20;16.50;89.10
40085;DHT22;25786;51.504;7.344;2023-08-30T14:14:45;16.50;88.90
40085;DHT22;25786;51.504;7.344;2023-08-30T14:17:11;16.50;88.20
40085;DHT22;25786;51.504;7.344;2023-08-30T14:19:37;16.60;88.00
40085;DHT22;25786;51.504;7.344;2023-08-30T14:22:03;16.50;88.20
40085;DHT22;25786;51.504;7.344;2023-08-30T14:24:33;16.60;88.10
40085;DHT22;25786;51.504;7.344;2023-08-30T14:27:01;16.60;87.90
40085;DHT22;25786;51.504;7.344;2023-08-30T14:29:28;16.80;88.40
40085;DHT22;25786;51.504;7.344;2023-08-30T14:31:53;16.90;88.00
40085;DHT22;25786;51.504;7.344;2023-08-30T14:34:22;16.90;87.70
40085;DHT22;25786;51.504;7.344;2023-08-30T14:36:47;16.90;87.50
40085;DHT22;25786;51.504;7.344;2023-08-30T14:39:14;17.00;86.90
40085;DHT22;25786;51.504;7.344;2023-08-30T14:41:39;17.10;86.30
40085;DHT22;25786;51.504;7.344;2023-08-30T14:44:05;17.00;85.90
40085;DHT22;25786;51.504;7.344;2023-08-30T14:46:30;17.00;85.50
40085;DHT22;25786;51.504;7.344;2023-08-30T14:48:56;17.00;86.20
40085;DHT22;25786;51.504;7.344;2023-08-30T14:51:21;16.80;85.80
40085;DHT22;25786;51.504;7.344;2023-08-30T14:53:47;16.80;86.30
40085;DHT22;25786;51.504;7.344;2023-08-30T14:56:12;16.60;86.90
40085;DHT22;25786;51.504;7.344;2023-08-30T14:58:37;16.60;86.80
40085;DHT22;25786;51.504;7.344;2023-08-30T15:01:04;16.50;86.90
40085;DHT22;25786;51.504;7.344;2023-08-30T15:03:29;16.50;87.40
40085;DHT22;25786;51.504;7.344;2023-08-30T15:05:55;16.40;87.30
40085;DHT22;25786;51.504;7.344;2023-08-30T15:08:21;16.40;87.60
40085;DHT22;25786;51.504;7.344;2023-08-30T15:10:47;16.40;87.70
40085;DHT22;25786;51.504;7.344;2023-08-30T15:13:13;16.40;87.40
40085;DHT22;25786;51.504;7.344;2023-08-30T15:15:38;16.30;88.00
40085;DHT22;25786;51.504;7.344;2023-08-30T15:18:03;16.30;88.60
40085;DHT22;25786;51.504;7.344;2023-08-30T15:20:29;16.20;88.70
40085;DHT22;25786;51.504;7.344;2023-08-30T15:22:54;16.10;88.60
40085;DHT22;25786;51.504;7.344;2023-08-30T15:25:21;16.10;88.60
40085;DHT22;25786;51.504;7.344;2023-08-30T15:27:46;16.00;88.70
40085;DHT22;25786;51.504;7.344;2023-08-30T15:30:12;16.10;88.80
40085;DHT22;25786;51.504;7.344;2023-08-30T15:32:38;16.00;89.00
40085;DHT22;25786;51.504;7.344;2023-08-30T15:35:04;16.00;89.10
40085;DHT22;25786;51.504;7.344;2023-08-30T15:37:29;16.00;89.10